Time;durP1;ratioP1;P1;durP2;ratioP2;P2;SDS_P1;SDS_P2;PMS_P1;PMS_P2;Temp;Humidity;BMP_temperature;BMP_pressure;BME280_temperature;BME280_humidity;BME280_pressure;Samples;Min_cycle;Max_cycle;Signal;HPM_P1;HPM_P2
2023/01/18 00:01:04;;;;;;;22.73;15.97;;;;;;;-0.14;100.00;93763.25;5069982;28;20225;-60
2023/01/18 00:03:33;;;;;;;21.17;16.00;;;;;;;-0.04;100.00;93768.53;5072620;28;20622;-60
2023/01/18 00:06:04;;;;;;;21.43;15.73;;;;;;;-0.13;100.00;93767.38;5054111;28;20280;-62
2023/01/18 00:08:31;;;;;;;20.63;15.07;;;;;;;-0.26;100.00;93765.13;5054878;28;20173;-59
2023/01/18 00:11:10;;;;;;;20.43;14.73;;;;;;;-0.09;100.00;93773.63;5073201;28;20187;-59
2023/01/18 00:13:36;;;;;;;20.23;15.00;;;;;;;-0.07;100.00;93765.66;5073148;28;20708;-59
2023/01/18 00:16:09;;;;;;;22.90;15.50;;;;;;;0.10;100.00;93765.66;5072515;28;20227;-56
2023/01/18 00:18:34;;;;;;;22.83;14.53;;;;;;;0.10;100.00;93768.22;5072810;28;20180;-55
2023/01/18 00:21:06;;;;;;;21.07;14.50;;;;;;;0.04;100.00;93764.81;5072222;28;20177;-55
2023/01/18 00:23:32;;;;;;;18.60;13.33;;;;;;;-0.03;100.00;93771.91;5071940;28;20700;-58
2023/01/18 00:26:06;;;;;;;18.00;13.90;;;;;;;0.02;100.00;93761.69;5072182;28;20193;-60
2023/01/18 00:28:32;;;;;;;18.57;14.17;;;;;;;-0.05;100.00;93766.97;5072557;28;20172;-55
2023/01/18 00:30:58;;;;;;;18.97;14.33;;;;;;;-0.09;100.00;93778.00;5071031;28;20185;-57
2023/01/18 00:33:23;;;;;;;17.17;13.97;;;;;;;-0.01;100.00;93778.38;5072207;28;20204;-57
2023/01/18 00:36:01;;;;;;;16.03;13.40;;;;;;;0.12;100.00;93773.91;5061802;28;20186;-58
2023/01/18 00:38:27;;;;;;;18.90;14.70;;;;;;;0.11;100.00;93774.94;5072015;28;20173;-57
2023/01/18 00:40:53;;;;;;;18.70;14.07;;;;;;;0.00;100.00;93774.03;5053976;28;20166;-59
2023/01/18 00:46:04;;;;;;;17.33;14.17;;;;;;;-0.19;100.00;93772.69;5072029;28;20208;-57
2023/01/18 00:48:29;;;;;;;19.13;14.17;;;;;;;-0.13;100.00;93780.25;5072104;28;20178;-58
2023/01/18 00:50:54;;;;;;;17.70;14.00;;;;;;;-0.05;100.00;93774.69;5071123;28;20264;-58
2023/01/18 00:53:20;;;;;;;18.13;13.70;;;;;;;-0.09;100.00;93785.72;5071978;28;20209;-58
2023/01/18 00:55:48;;;;;;;19.80;14.33;;;;;;;-0.05;100.00;93790.16;5071763;28;20170;-56
2023/01/18 00:58:13;;;;;;;19.10;15.17;;;;;;;0.06;100.00;93778.19;5068172;28;20186;-57
2023/01/18 01:00:40;;;;;;;17.77;14.67;;;;;;;0.05;100.00;93781.81;5066129;28;20754;-59
2023/01/18 01:03:06;;;;;;;21.67;14.80;;;;;;;-0.03;100.00;93777.03;5071803;28;20732;-58
2023/01/18 01:08:15;;;;;;;16.87;13.63;;;;;;;0.05;100.00;93781.03;5072304;28;20180;-57
2023/01/18 01:10:43;;;;;;;19.17;14.13;;;;;;;0.10;100.00;93786.25;5072531;28;20177;-56
2023/01/18 01:26:48;;;;;;;16.03;13.23;;;;;;;-0.06;100.00;93796.31;5071706;28;20199;-59
2023/01/18 01:29:14;;;;;;;16.70;13.67;;;;;;;0.15;100.00;93805.13;5071876;28;20173;-57
2023/01/18 01:31:40;;;;;;;17.73;13.23;;;;;;;-0.05;100.00;93797.88;5071291;28;20309;-54
2023/01/18 01:34:05;;;;;;;18.50;15.00;;;;;;;-0.02;100.00;93802.56;5071376;28;20201;-57
2023/01/18 01:36:31;;;;;;;19.23;13.83;;;;;;;0.03;100.00;93801.06;5071161;28;20211;-55
2023/01/18 01:38:57;;;;;;;18.97;14.40;;;;;;;0.14;100.00;93807.94;5071550;28;20268;-57
2023/01/18 01:41:29;;;;;;;24.60;16.43;;;;;;;0.13;100.00;93807.16;5071314;28;20181;-56
2023/01/18 01:43:57;;;;;;;19.33;15.23;;;;;;;0.15;100.00;93809.50;5071688;28;20196;-58
2023/01/18 01:46:29;;;;;;;21.10;15.73;;;;;;;0.10;100.00;93809.44;5071290;28;20243;-58
2023/01/18 01:49:09;;;;;;;20.27;15.23;;;;;;;-0.04;100.00;93806.38;5071292;28;20238;-56
2023/01/18 01:51:38;;;;;;;22.13;16.70;;;;;;;0.07;100.00;93812.44;5075017;28;20185;-57
2023/01/18 01:54:08;;;;;;;22.20;15.90;;;;;;;0.04;100.00;93808.56;5075510;28;20262;-58
2023/01/18 01:56:33;;;;;;;22.93;16.47;;;;;;;0.11;100.00;93816.91;5057903;28;20599;-59
2023/01/18 01:59:01;;;;;;;21.70;17.63;;;;;;;0.18;100.00;93809.78;5075037;28;20262;-59
2023/01/18 02:01:28;;;;;;;19.47;15.70;;;;;;;0.16;100.00;93811.84;5072264;28;20286;-58
2023/01/18 02:03:57;;;;;;;21.37;16.83;;;;;;;0.13;100.00;93816.66;5075144;28;20212;-59
2023/01/18 02:06:30;;;;;;;21.53;16.17;;;;;;;0.00;100.00;93821.09;5075279;28;20189;-59
2023/01/18 02:08:58;;;;;;;22.10;16.97;;;;;;;0.09;100.00;93818.16;5074965;28;20621;-55
2023/01/18 02:11:23;;;;;;;19.47;14.93;;;;;;;-0.01;100.00;93819.56;5074872;28;20170;-59
2023/01/18 02:13:49;;;;;;;20.17;15.90;;;;;;;0.03;100.00;93825.03;5075091;28;20215;-58
2023/01/18 02:16:35;;;;;;;19.37;16.13;;;;;;;0.14;100.00;93828.53;5075010;28;20260;-59
2023/01/18 02:19:06;;;;;;;23.43;16.37;;;;;;;0.13;100.00;93827.75;5075172;28;20239;-59
2023/01/18 02:21:38;;;;;;;21.07;16.67;;;;;;;0.24;100.00;93821.72;5074653;28;20169;-59
2023/01/18 02:24:55;;;;;;;22.10;17.03;;;;;;;0.13;100.00;93826.97;5060671;28;20169;-59
2023/01/18 02:28:05;;;;;;;22.57;16.50;;;;;;;0.08;100.00;93837.97;5074824;28;20261;-59
2023/01/18 02:30:35;;;;;;;20.43;15.37;;;;;;;0.00;100.00;93833.22;5012568;28;20186;-58
2023/01/18 02:33:18;;;;;;;22.43;16.30;;;;;;;-0.02;100.00;93832.66;5066964;28;20231;-59
2023/01/18 02:35:50;;;;;;;22.47;17.33;;;;;;;-0.04;100.00;93840.63;5073697;28;20173;-59
2023/01/18 02:38:19;;;;;;;21.90;16.50;;;;;;;0.05;100.00;93838.44;5074677;28;20196;-59
2023/01/18 02:41:03;;;;;;;20.97;15.60;;;;;;;0.08;100.00;93835.41;5074529;28;20266;-58
2023/01/18 02:46:29;;;;;;;23.40;17.07;;;;;;;0.10;100.00;93841.09;5060076;28;20258;-56
2023/01/18 02:48:56;;;;;;;21.87;16.57;;;;;;;0.00;100.00;93854.56;5074138;28;20298;-55
2023/01/18 02:51:23;;;;;;;23.27;16.47;;;;;;;-0.08;100.00;93857.56;5074145;28;20181;-59
2023/01/18 02:53:48;;;;;;;21.23;16.23;;;;;;;-0.12;100.00;93858.25;5073566;28;20512;-59
2023/01/18 02:56:29;;;;;;;19.80;16.10;;;;;;;-0.25;100.00;93859.31;5074127;28;20242;-60
2023/01/18 02:58:58;;;;;;;20.87;15.77;;;;;;;-0.22;100.00;93858.84;5073623;28;20185;-58
2023/01/18 03:01:39;;;;;;;22.33;16.40;;;;;;;-0.19;100.00;93860.97;5071043;28;20599;-59
2023/01/18 03:04:30;;;;;;;21.80;16.37;;;;;;;-0.22;100.00;93863.22;5074090;28;20741;-60
2023/01/18 03:07:17;;;;;;;19.77;14.60;;;;;;;-0.26;100.00;93870.63;5073886;28;20193;-58
2023/01/18 03:09:44;;;;;;;21.27;15.07;;;;;;;-0.33;100.00;93862.25;5074128;28;20527;-59
2023/01/18 03:12:20;;;;;;;20.37;14.80;;;;;;;-0.34;100.00;93868.44;5074451;28;20203;-59
2023/01/18 03:15:08;;;;;;;21.73;14.83;;;;;;;-0.40;100.00;93871.16;5056179;28;20283;-57
2023/01/18 03:17:50;;;;;;;16.97;13.60;;;;;;;-0.57;100.00;93856.44;5074491;28;20248;-56
2023/01/18 03:20:24;;;;;;;21.37;14.87;;;;;;;-0.43;100.00;93862.88;5073591;28;20539;-59
2023/01/18 03:23:39;;;;;;;22.23;15.17;;;;;;;-0.52;100.00;93861.69;5073693;28;20274;-57
2023/01/18 03:26:10;;;;;;;18.53;14.37;;;;;;;-0.60;100.00;93866.41;5061152;28;20552;-56
2023/01/18 03:34:32;;;;;;;19.57;15.43;;;;;;;-0.46;100.00;93876.19;5073209;28;20192;-57
2023/01/18 03:37:02;;;;;;;17.17;13.90;;;;;;;-0.46;100.00;93872.84;5073178;28;20169;-56
2023/01/18 03:39:35;;;;;;;19.27;15.20;;;;;;;-0.47;100.00;93874.63;5073224;28;20169;-57
2023/01/18 03:42:09;;;;;;;17.83;14.00;;;;;;;-0.42;100.00;93882.44;5073007;28;20193;-57
2023/01/18 03:44:40;;;;;;;19.43;14.67;;;;;;;-0.50;100.00;93879.44;5073085;28;20177;-59
2023/01/18 03:47:06;;;;;;;18.17;13.30;;;;;;;-0.55;100.00;93890.41;5072874;28;20597;-59
2023/01/18 03:49:33;;;;;;;17.60;13.93;;;;;;;-0.57;100.00;93882.16;5072496;28;20565;-59
2023/01/18 03:52:14;;;;;;;20.90;13.47;;;;;;;-0.70;100.00;93879.84;5072737;28;20200;-58
2023/01/18 03:54:46;;;;;;;17.47;13.17;;;;;;;-0.90;100.00;93877.69;5072937;28;20188;-58
2023/01/18 03:57:18;;;;;;;14.93;12.00;;;;;;;-0.85;100.00;93877.00;5072746;28;20188;-58
2023/01/18 03:59:45;;;;;;;14.67;11.93;;;;;;;-0.96;100.00;93885.53;5054575;28;20267;-63
2023/01/18 04:02:10;;;;;;;15.40;12.77;;;;;;;-0.88;100.00;93880.78;5069969;28;20232;-60
2023/01/18 04:04:35;;;;;;;14.47;12.60;;;;;;;-0.75;100.00;93897.75;5072829;28;20196;-60
2023/01/18 04:07:02;;;;;;;16.30;12.07;;;;;;;-0.73;100.00;93907.81;5054196;28;20192;-60
2023/01/18 04:09:28;;;;;;;17.00;12.80;;;;;;;-0.59;100.00;93902.19;5072432;28;20630;-60
2023/01/18 04:11:54;;;;;;;17.17;13.13;;;;;;;-0.67;100.00;93904.34;5071479;28;20250;-59
2023/01/18 04:14:19;;;;;;;17.87;13.13;;;;;;;-0.68;100.00;93907.91;5072958;28;20201;-59
2023/01/18 04:16:45;;;;;;;17.87;14.67;;;;;;;-0.54;100.00;93909.22;5072877;28;20232;-59
2023/01/18 04:19:10;;;;;;;17.40;13.77;;;;;;;-0.80;100.00;93915.66;5072171;28;20693;-59
2023/01/18 04:21:37;;;;;;;19.87;14.80;;;;;;;-0.70;100.00;93909.94;5063648;28;20264;-55
2023/01/18 04:24:03;;;;;;;18.93;13.70;;;;;;;-0.71;100.00;93916.84;5072616;28;20256;-59
2023/01/18 04:26:28;;;;;;;18.53;14.13;;;;;;;-0.63;100.00;93920.88;5072144;28;20225;-59
2023/01/18 04:28:54;;;;;;;18.23;14.20;;;;;;;-0.60;100.00;93928.13;5072765;28;20209;-57
2023/01/18 04:31:20;;;;;;;20.43;15.03;;;;;;;-0.68;100.00;93928.50;5072115;28;20708;-59
2023/01/18 04:33:50;;;;;;;19.27;15.43;;;;;;;-0.64;100.00;93927.03;5071508;28;20284;-57
2023/01/18 04:36:16;;;;;;;18.97;14.87;;;;;;;-0.57;100.00;93922.53;5072172;28;20165;-60
2023/01/18 04:38:41;;;;;;;18.47;15.20;;;;;;;-0.51;100.00;93921.63;5064591;28;20212;-59
2023/01/18 04:41:07;;;;;;;23.03;16.17;;;;;;;-0.55;100.00;93933.34;5072086;28;20197;-59
2023/01/18 04:43:32;;;;;;;20.43;15.43;;;;;;;-0.38;100.00;93941.13;5071847;28;20216;-59
2023/01/18 04:45:58;;;;;;;19.13;15.73;;;;;;;-0.50;100.00;93943.75;5071890;28;20193;-58
2023/01/18 04:48:24;;;;;;;17.50;14.80;;;;;;;-0.48;100.00;93941.72;5072061;28;20230;-58
2023/01/18 04:50:50;;;;;;;19.90;15.50;;;;;;;-0.71;100.00;93942.56;5064533;28;20657;-58
2023/01/18 04:53:16;;;;;;;17.47;14.87;;;;;;;-0.72;100.00;93948.72;5071707;28;20201;-59
2023/01/18 04:55:43;;;;;;;17.97;14.73;;;;;;;-0.76;100.00;93946.81;5071863;28;20165;-59
2023/01/18 04:58:09;;;;;;;20.17;14.70;;;;;;;-0.72;100.00;93950.50;5071796;28;20650;-58
2023/01/18 05:00:38;;;;;;;21.10;17.07;;;;;;;-0.65;100.00;93961.44;5069154;28;20719;-59
2023/01/18 05:03:05;;;;;;;20.83;16.33;;;;;;;-0.88;100.00;93968.19;5071738;28;20209;-59
2023/01/18 05:05:30;;;;;;;18.63;14.77;;;;;;;-0.71;100.00;93970.06;5071747;28;20288;-59
2023/01/18 05:07:56;;;;;;;20.60;16.20;;;;;;;-0.87;100.00;93972.34;5072520;28;20205;-57
2023/01/18 05:10:22;;;;;;;21.80;16.50;;;;;;;-0.85;100.00;93978.03;5072193;28;20211;-59
2023/01/18 05:12:47;;;;;;;20.90;15.07;;;;;;;-0.83;100.00;93980.38;5072845;28;20208;-59
2023/01/18 05:15:13;;;;;;;20.63;16.93;;;;;;;-1.07;100.00;93995.03;5070727;28;20173;-59
2023/01/18 05:17:39;;;;;;;21.63;17.03;;;;;;;-1.01;100.00;93996.72;5071769;28;20174;-59
2023/01/18 05:20:08;;;;;;;19.33;16.13;;;;;;;-1.07;100.00;94000.19;5071950;28;20208;-59
2023/01/18 05:22:33;;;;;;;22.13;16.13;;;;;;;-1.00;100.00;94002.63;5053854;28;20708;-59
2023/01/18 05:24:59;;;;;;;20.10;16.77;;;;;;;-0.86;100.00;94012.47;5075820;28;20166;-59
2023/01/18 05:27:24;;;;;;;21.13;15.20;;;;;;;-0.89;100.00;94019.81;5076184;28;20177;-59
2023/01/18 05:29:50;;;;;;;19.30;14.60;;;;;;;-1.01;100.00;94022.41;5057186;28;20181;-60
2023/01/18 05:32:16;;;;;;;17.47;14.37;;;;;;;-1.09;100.00;94025.31;5075291;28;20205;-59
2023/01/18 05:34:42;;;;;;;16.73;13.93;;;;;;;-1.17;100.00;94037.72;5074996;28;20304;-61
2023/01/18 05:37:08;;;;;;;16.10;14.40;;;;;;;-1.11;100.00;94040.16;5075639;28;20173;-59
2023/01/18 05:39:34;;;;;;;16.00;14.10;;;;;;;-1.09;100.00;94038.16;5075469;28;20184;-60
2023/01/18 05:41:59;;;;;;;14.93;13.33;;;;;;;-1.17;100.00;94050.56;5075222;28;20205;-60
2023/01/18 05:44:25;;;;;;;17.37;13.50;;;;;;;-1.35;100.00;94049.63;5075367;28;20234;-61
2023/01/18 05:46:50;;;;;;;14.10;12.63;;;;;;;-1.37;100.00;94059.34;5075232;28;20189;-60
2023/01/18 05:49:30;;;;;;;14.20;12.37;;;;;;;-1.29;100.00;94055.66;5075321;28;20193;-59
2023/01/18 05:51:56;;;;;;;20.90;18.97;;;;;;;-1.28;100.00;94064.91;5056739;28;20208;-61
2023/01/18 05:54:22;;;;;;;14.03;12.63;;;;;;;-1.24;100.00;94070.41;5075196;28;20625;-60
2023/01/18 05:56:48;;;;;;;13.43;12.03;;;;;;;-1.24;100.00;94075.56;5074986;28;20516;-57
2023/01/18 05:59:14;;;;;;;13.00;11.60;;;;;;;-1.28;100.00;94075.19;5074742;28;20220;-58
2023/01/18 06:01:40;;;;;;;15.03;12.90;;;;;;;-1.14;100.00;94080.94;5071844;28;20635;-59
2023/01/18 06:04:06;;;;;;;12.70;11.43;;;;;;;-1.08;100.00;94087.75;5074825;28;20185;-59
2023/01/18 06:06:31;;;;;;;15.73;13.33;;;;;;;-1.10;100.00;94100.03;5074782;28;20190;-59
2023/01/18 06:08:57;;;;;;;14.00;12.30;;;;;;;-1.26;100.00;94106.59;5074643;28;20527;-59
2023/01/18 06:11:22;;;;;;;13.90;12.57;;;;;;;-1.36;100.00;94111.50;5074746;28;20169;-60
2023/01/18 06:13:48;;;;;;;14.23;12.77;;;;;;;-1.41;100.00;94125.00;5056195;28;20197;-60
2023/01/18 06:16:13;;;;;;;12.70;11.40;;;;;;;-1.31;100.00;94127.03;5074639;28;20173;-62
2023/01/18 06:18:40;;;;;;;16.07;13.40;;;;;;;-1.30;100.00;94128.59;5074379;28;20161;-60
2023/01/18 06:21:06;;;;;;;13.60;12.23;;;;;;;-1.34;100.00;94140.31;5074045;28;20544;-60
2023/01/18 06:23:34;;;;;;;14.00;12.00;;;;;;;-1.30;100.00;94139.66;5074927;28;20228;-61
2023/01/18 06:25:59;;;;;;;13.43;12.03;;;;;;;-1.22;100.00;94140.34;5074420;28;20193;-62
2023/01/18 06:28:25;;;;;;;14.13;12.07;;;;;;;-1.13;100.00;94150.09;5074454;28;20166;-60
2023/01/18 06:30:55;;;;;;;13.50;12.10;;;;;;;-1.22;100.00;94151.41;5074376;28;20653;-62
2023/01/18 06:33:21;;;;;;;13.50;12.10;;;;;;;-1.10;100.00;94156.56;5074163;28;20197;-61
2023/01/18 06:35:47;;;;;;;15.50;10.50;;;;;;;-1.01;100.00;94163.78;5073908;28;20187;-61
2023/01/18 06:38:12;;;;;;;13.03;11.23;;;;;;;-0.96;100.00;94163.91;5074649;28;20622;-63
2023/01/18 06:40:38;;;;;;;13.23;11.83;;;;;;;-1.07;100.00;94161.28;5074492;28;20189;-64
2023/01/18 06:43:04;;;;;;;11.83;10.53;;;;;;;-1.08;100.00;94170.00;5073899;28;20197;-61
2023/01/18 06:45:29;;;;;;;12.47;10.77;;;;;;;-1.12;100.00;94168.88;5074856;28;20703;-65
2023/01/18 06:47:55;;;;;;;12.73;11.43;;;;;;;-1.11;100.00;94181.50;5056243;28;20185;-61
2023/01/18 06:50:21;;;;;;;12.63;10.77;;;;;;;-0.90;100.00;94190.50;5074543;28;20537;-61
2023/01/18 06:52:47;;;;;;;14.23;11.07;;;;;;;-1.13;100.00;94180.16;5074502;28;20225;-62
2023/01/18 06:55:13;;;;;;;12.50;11.20;;;;;;;-1.11;100.00;94181.50;5074463;28;20268;-62
2023/01/18 06:57:39;;;;;;;12.97;11.10;;;;;;;-1.10;100.00;94197.69;5073731;28;20184;-62
2023/01/18 07:00:10;;;;;;;13.67;12.00;;;;;;;-1.01;100.00;94201.53;5073849;28;20483;-60
2023/01/18 07:02:36;;;;;;;13.03;11.20;;;;;;;-1.00;100.00;94206.44;5071487;28;20247;-61
2023/01/18 07:05:03;;;;;;;16.90;11.43;;;;;;;-1.02;100.00;94212.81;5074015;28;20276;-62
2023/01/18 07:07:29;;;;;;;13.53;11.80;;;;;;;-0.94;100.00;94215.84;5074249;28;20610;-59
2023/01/18 07:09:54;;;;;;;15.23;11.57;;;;;;;-1.05;100.00;94214.03;5073773;28;20200;-65
2023/01/18 07:12:20;;;;;;;12.63;11.33;;;;;;;-1.10;100.00;94224.19;5074843;28;20606;-65
2023/01/18 07:14:45;;;;;;;13.10;11.47;;;;;;;-0.98;100.00;94227.59;5074482;28;20192;-64
2023/01/18 07:17:13;;;;;;;15.10;11.97;;;;;;;-1.04;100.00;94230.22;5074390;28;20165;-58
2023/01/18 07:19:38;;;;;;;14.90;13.30;;;;;;;-1.16;100.00;94232.75;5072971;28;20197;-59
2023/01/18 07:22:04;;;;;;;15.33;12.90;;;;;;;-1.25;100.00;94239.19;5073741;28;20216;-57
2023/01/18 07:24:30;;;;;;;17.40;12.83;;;;;;;-1.10;100.00;94236.25;5073728;28;20185;-59
2023/01/18 07:26:58;;;;;;;19.13;13.50;;;;;;;-1.21;100.00;94247.25;5073800;28;20189;-61
2023/01/18 07:29:24;;;;;;;17.23;13.67;;;;;;;-1.16;100.00;94250.75;5074046;28;20173;-59
2023/01/18 07:31:49;;;;;;;15.73;13.17;;;;;;;-1.18;100.00;94257.09;5073338;28;20185;-59
2023/01/18 07:34:15;;;;;;;16.17;13.03;;;;;;;-1.10;100.00;94261.94;5054531;28;20268;-58
2023/01/18 07:36:40;;;;;;;14.53;12.87;;;;;;;-1.31;100.00;94269.09;5073795;28;20174;-58
2023/01/18 07:39:07;;;;;;;13.53;12.17;;;;;;;-1.32;100.00;94272.66;5073578;28;20272;-59
2023/01/18 07:41:33;;;;;;;17.73;13.50;;;;;;;-1.14;100.00;94273.66;5073147;28;20189;-59
2023/01/18 07:43:59;;;;;;;16.57;12.97;;;;;;;-1.18;100.00;94280.25;5072641;28;20650;-59
2023/01/18 07:46:25;;;;;;;18.57;14.13;;;;;;;-1.00;100.00;94285.34;5073077;28;20197;-58
2023/01/18 07:48:51;;;;;;;14.70;13.20;;;;;;;-1.00;100.00;94286.13;5072691;28;20185;-59
2023/01/18 07:51:18;;;;;;;17.43;12.60;;;;;;;-0.89;100.00;94295.66;5073074;28;20551;-58
2023/01/18 07:53:44;;;;;;;15.43;13.13;;;;;;;-1.10;100.00;94290.22;5054789;28;20197;-59
2023/01/18 07:56:15;;;;;;;15.93;14.10;;;;;;;-1.15;100.00;94302.91;5072698;28;20224;-60
2023/01/18 07:58:41;;;;;;;15.40;13.00;;;;;;;-1.21;100.00;94298.63;5072673;28;20192;-62
2023/01/18 08:01:12;;;;;;;15.40;13.40;;;;;;;-1.19;100.00;94310.28;5069259;28;20233;-60
2023/01/18 08:03:38;;;;;;;15.00;12.83;;;;;;;-1.07;100.00;94308.56;5070054;28;20211;-62
2023/01/18 08:06:06;;;;;;;16.80;13.47;;;;;;;-1.12;100.00;94315.34;5070380;28;20553;-60
2023/01/18 08:08:32;;;;;;;16.47;14.07;;;;;;;-1.19;100.00;94324.91;5072585;28;20180;-60
2023/01/18 08:11:00;;;;;;;15.17;12.77;;;;;;;-0.97;100.00;94315.75;5072693;28;20292;-56
2023/01/18 08:13:26;;;;;;;13.23;11.93;;;;;;;-0.99;100.00;94333.97;5061220;28;20200;-60
2023/01/18 08:15:52;;;;;;;13.87;12.37;;;;;;;-0.95;100.00;94342.03;5091656;28;20222;-56
2023/01/18 08:18:18;;;;;;;15.10;13.37;;;;;;;-0.95;100.00;94342.03;5082317;28;20185;-60
2023/01/18 08:20:45;;;;;;;16.57;13.13;;;;;;;-0.83;100.00;94348.00;5071703;28;20180;-60
2023/01/18 08:23:10;;;;;;;14.47;12.87;;;;;;;-0.87;100.00;94352.81;5070949;28;20231;-59
2023/01/18 08:25:37;;;;;;;16.33;13.83;;;;;;;-0.77;100.00;94365.16;5079890;28;20719;-60
2023/01/18 08:28:03;;;;;;;15.17;13.57;;;;;;;-0.68;100.00;94369.00;5092476;28;20206;-60
2023/01/18 08:30:32;;;;;;;15.00;12.67;;;;;;;-0.60;100.00;94368.69;5093518;28;20544;-59
2023/01/18 08:32:59;;;;;;;15.93;14.43;;;;;;;-0.79;100.00;94371.53;5088970;28;20204;-59
2023/01/18 08:35:27;;;;;;;10.77;9.77;;;;;;;-0.89;100.00;94380.50;5071396;28;20200;-57
2023/01/18 08:37:53;;;;;;;13.60;11.20;;;;;;;-0.85;100.00;94386.81;5071028;28;20576;-58
2023/01/18 08:40:20;;;;;;;12.23;10.87;;;;;;;-0.68;100.00;94394.72;5071046;28;20178;-57
2023/01/18 08:42:46;;;;;;;13.27;11.87;;;;;;;-0.70;100.00;94396.72;5070621;28;20253;-56
2023/01/18 08:45:12;;;;;;;12.13;10.73;;;;;;;-0.61;100.00;94402.34;5054395;28;20208;-57
2023/01/18 08:47:38;;;;;;;12.13;10.83;;;;;;;-0.82;100.00;94415.66;5070558;28;20185;-59
2023/01/18 08:50:04;;;;;;;10.97;9.97;;;;;;;-0.85;100.00;94422.00;5070686;28;20551;-56
2023/01/18 08:52:29;;;;;;;11.17;9.90;;;;;;;-0.73;100.00;94422.88;5069740;28;20614;-58
2023/01/18 08:54:55;;;;;;;11.87;10.77;;;;;;;-0.79;100.00;94421.16;5071568;28;20181;-58
2023/01/18 08:57:20;;;;;;;11.10;9.77;;;;;;;-0.71;100.00;94426.00;5071110;28;20184;-59
2023/01/18 08:59:46;;;;;;;11.67;10.47;;;;;;;-0.63;100.00;94440.38;5070903;28;20177;-58
2023/01/18 09:02:11;;;;;;;11.37;10.37;;;;;;;-0.54;100.00;94439.84;5069632;28;20236;-57
2023/01/18 09:04:37;;;;;;;14.50;10.00;;;;;;;-0.60;100.00;94442.50;5071664;28;20548;-59
2023/01/18 09:07:02;;;;;;;11.33;10.20;;;;;;;-0.51;100.00;94443.81;5071492;28;20226;-57
2023/01/18 09:09:28;;;;;;;11.77;10.57;;;;;;;-0.40;100.00;94452.56;5070737;28;20173;-58
2023/01/18 09:11:55;;;;;;;11.27;10.13;;;;;;;-0.44;100.00;94455.56;5071783;28;20669;-58
2023/01/18 09:14:20;;;;;;;9.87;9.03;;;;;;;-0.46;100.00;94472.22;5071946;28;20177;-59
2023/01/18 09:16:46;;;;;;;11.10;10.10;;;;;;;-0.62;100.00;94465.09;5071680;28;20263;-59
2023/01/18 09:19:11;;;;;;;10.83;9.73;;;;;;;-0.55;100.00;94476.06;5071736;28;20208;-59
2023/01/18 09:21:37;;;;;;;10.63;9.40;;;;;;;-0.58;100.00;94471.38;5071995;28;20573;-59
2023/01/18 09:24:02;;;;;;;13.83;12.60;;;;;;;-0.49;100.00;94480.38;5071808;28;20170;-64
2023/01/18 09:26:29;;;;;;;11.03;10.03;;;;;;;-0.30;100.00;94481.94;5071046;28;20197;-67
2023/01/18 09:28:54;;;;;;;11.10;10.07;;;;;;;-0.36;100.00;94485.38;5071900;28;20177;-58
2023/01/18 09:31:22;;;;;;;11.80;10.23;;;;;;;-0.40;100.00;94493.75;5053257;28;20185;-58
2023/01/18 09:33:48;;;;;;;10.53;9.13;;;;;;;-0.38;100.00;94504.59;5071155;28;20205;-58
2023/01/18 09:36:14;;;;;;;9.83;8.90;;;;;;;-0.34;100.00;94511.69;5071399;28;20177;-58
2023/01/18 09:38:41;;;;;;;10.77;9.67;;;;;;;-0.23;100.00;94513.53;5071206;28;20188;-58
2023/01/18 09:41:45;;;;;;;10.13;9.23;;;;;;;-0.03;100.00;94521.81;5071295;28;20170;-59
2023/01/18 09:44:53;;;;;;;10.40;9.40;;;;;;;-0.30;100.00;94523.13;5021578;28;20200;-56
2023/01/18 09:47:33;;;;;;;10.60;9.53;;;;;;;0.02;100.00;94525.50;5068950;28;20220;-60
2023/01/18 09:50:09;;;;;;;10.70;9.60;;;;;;;-0.20;100.00;94531.13;5071970;28;20254;-57
2023/01/18 09:52:50;;;;;;;10.87;9.87;;;;;;;-0.20;100.00;94540.63;5068677;28;20255;-55
2023/01/18 09:55:37;;;;;;;9.70;8.80;;;;;;;-0.31;100.00;94541.34;5070779;28;20181;-52
2023/01/18 09:58:30;;;;;;;9.97;8.57;;;;;;;-0.45;100.00;94538.13;5070825;28;20267;-59
2023/01/18 10:01:05;;;;;;;9.63;8.73;;;;;;;-0.32;100.00;94548.25;5068819;28;20701;-55
2023/01/18 10:03:49;;;;;;;9.93;8.93;;;;;;;-0.03;100.00;94551.91;5070918;28;20244;-57
2023/01/18 10:06:25;;;;;;;10.13;9.13;;;;;;;-0.36;100.00;94549.69;5064937;28;20567;-59
2023/01/18 10:09:14;;;;;;;10.17;9.17;;;;;;;-0.08;100.00;94559.50;5052886;28;20180;-59
2023/01/18 10:12:02;;;;;;;10.70;9.60;;;;;;;-0.18;100.00;94561.78;5074126;28;20189;-55
2023/01/18 10:14:49;;;;;;;10.33;9.43;;;;;;;-0.07;100.00;94573.94;5072701;28;20177;-58
2023/01/18 10:17:20;;;;;;;9.87;8.97;;;;;;;-0.10;100.00;94571.78;5074756;28;20200;-55
2023/01/18 10:19:46;;;;;;;9.63;8.73;;;;;;;-0.16;100.00;94570.84;5078133;28;20494;-52
2023/01/18 10:22:24;;;;;;;10.30;9.30;;;;;;;-0.37;100.00;94561.00;5075072;28;20250;-58
2023/01/18 10:25:00;;;;;;;9.30;8.50;;;;;;;-0.41;100.00;94567.56;5075322;28;20188;-60
2023/01/18 10:27:49;;;;;;;9.20;8.40;;;;;;;-0.29;100.00;94565.88;5058168;28;20181;-57
2023/01/18 10:30:35;;;;;;;8.67;7.87;;;;;;;0.06;100.00;94576.34;5076192;28;20192;-59
2023/01/18 10:33:11;;;;;;;9.13;8.17;;;;;;;0.01;100.00;94583.94;5054031;28;20244;-58
2023/01/18 10:35:44;;;;;;;9.73;8.63;;;;;;;0.11;100.00;94583.47;5069238;28;20691;-53
2023/01/18 10:38:14;;;;;;;8.80;7.90;;;;;;;-0.07;100.00;94587.59;5075101;28;20634;-54
2023/01/18 10:40:42;;;;;;;8.77;7.77;;;;;;;0.40;100.00;94598.13;5075116;28;20182;-58
2023/01/18 10:43:14;;;;;;;9.13;8.20;;;;;;;0.12;100.00;94598.66;5058489;28;20209;-58
2023/01/18 10:45:39;;;;;;;9.47;8.67;;;;;;;0.11;100.00;94602.28;5074003;28;20197;-58
2023/01/18 10:48:30;;;;;;;10.93;9.90;;;;;;;0.00;100.00;94610.72;5074710;28;20185;-58
2023/01/18 10:51:04;;;;;;;9.67;8.87;;;;;;;0.07;100.00;94616.56;5062446;28;20201;-57
2023/01/18 10:53:35;;;;;;;11.67;9.83;;;;;;;-0.06;100.00;94616.72;5074432;28;20201;-60
2023/01/18 10:56:05;;;;;;;9.97;8.97;;;;;;;-0.04;100.00;94614.69;5074600;28;20165;-59
2023/01/18 10:58:49;;;;;;;9.30;8.40;;;;;;;0.18;100.00;94620.19;5056951;28;20234;-58
2023/01/18 11:01:23;;;;;;;9.57;8.67;;;;;;;-0.25;100.00;94621.06;5072554;28;20290;-60
2023/01/18 11:04:05;;;;;;;10.27;8.33;;;;;;;-0.24;100.00;94634.72;5073600;28;20224;-59
2023/01/18 11:06:45;;;;;;;8.63;7.83;;;;;;;-0.03;100.00;94629.94;5074162;28;20190;-58
2023/01/18 11:09:35;;;;;;;13.77;8.97;;;;;;;0.13;100.00;94627.78;5073919;28;20207;-58
2023/01/18 11:12:41;;;;;;;10.30;9.20;;;;;;;0.08;100.00;94641.31;5073654;28;20201;-55
2023/01/18 11:15:12;;;;;;;11.03;9.13;;;;;;;-0.17;100.00;94631.06;5073664;28;20219;-56
2023/01/18 11:18:00;;;;;;;10.20;9.17;;;;;;;-0.09;100.00;94637.72;5073616;28;20549;-59
2023/01/18 11:20:34;;;;;;;9.43;8.43;;;;;;;0.08;100.00;94628.44;5074035;28;20176;-55
2023/01/18 11:23:04;;;;;;;11.03;8.87;;;;;;;0.27;100.00;94644.69;5073491;28;20703;-55
2023/01/18 11:25:39;;;;;;;11.60;8.97;;;;;;;0.47;100.00;94637.50;5055019;28;20193;-60
2023/01/18 11:28:31;;;;;;;12.67;10.33;;;;;;;0.43;100.00;94643.31;5074933;28;20173;-57
2023/01/18 11:31:06;;;;;;;12.37;9.90;;;;;;;0.27;100.00;94655.00;5023149;28;20202;-57
2023/01/18 11:33:32;;;;;;;11.70;9.47;;;;;;;0.18;100.00;94658.84;5069100;28;20286;-57
2023/01/18 11:36:01;;;;;;;11.43;8.63;;;;;;;-0.11;100.00;94660.31;5073882;28;20181;-58
2023/01/18 11:38:30;;;;;;;12.53;10.67;;;;;;;-0.27;100.00;94660.84;5074382;28;20219;-57
2023/01/18 11:41:17;;;;;;;10.93;8.17;;;;;;;-0.08;100.00;94665.03;5073119;28;20664;-57
2023/01/18 11:44:12;;;;;;;11.60;9.17;;;;;;;-0.05;100.00;94665.41;5073261;28;20256;-55
2023/01/18 11:46:52;;;;;;;9.97;8.97;;;;;;;0.06;100.00;94661.31;5065208;28;20200;-57
2023/01/18 11:49:36;;;;;;;13.27;8.60;;;;;;;0.18;100.00;94669.13;5073394;28;20258;-58
2023/01/18 11:52:11;;;;;;;12.80;9.50;;;;;;;-0.05;100.00;94675.69;5073486;28;20200;-58
2023/01/18 11:54:45;;;;;;;13.07;9.13;;;;;;;-0.01;100.00;94676.88;5072953;28;20235;-59
2023/01/18 11:57:11;;;;;;;9.83;8.77;;;;;;;0.11;100.00;94673.59;5068345;28;20174;-59